Time;durP1;ratioP1;P1;durP2;ratioP2;P2;SDS_P1;SDS_P2;PMS_P1;PMS_P2;Temp;Humidity;BMP_temperature;BMP_pressure;BME280_temperature;BME280_humidity;BME280_pressure;Samples;Min_cycle;Max_cycle;Signal;HPM_P1;HPM_P2
2022/06/24 00:00:15;;;;;;;13.38;5.10;;;15.90;85.40;;;;;;4965727;28;20027;-70
2022/06/24 00:02:46;;;;;;;11.18;5.15;;;15.80;85.20;;;;;;4957915;28;20043;-69
2022/06/24 00:05:13;;;;;;;12.98;5.30;;;15.90;84.20;;;;;;4965204;28;20370;-70
2022/06/24 00:07:58;;;;;;;9.57;5.07;;;15.90;83.90;;;;;;4948876;28;20074;-70
2022/06/24 00:10:32;;;;;;;13.55;5.80;;;15.90;83.40;;;;;;4944168;28;20127;-68
2022/06/24 00:12:58;;;;;;;17.45;5.78;;;15.90;82.60;;;;;;4958861;28;20466;-69
2022/06/24 00:15:25;;;;;;;14.57;6.43;;;16.00;81.80;;;;;;4949317;28;20134;-69
2022/06/24 00:17:54;;;;;;;20.70;7.40;;;16.00;82.10;;;;;;4956478;28;20045;-69
2022/06/24 00:20:21;;;;;;;17.92;5.88;;;15.90;81.80;;;;;;4939941;28;20024;-70
2022/06/24 00:22:51;;;;;;;13.35;5.53;;;15.90;81.40;;;;;;4944218;28;20026;-69
2022/06/24 00:25:21;;;;;;;10.57;4.00;;;15.90;81.80;;;;;;4960689;28;20038;-68
2022/06/24 00:28:05;;;;;;;14.43;5.72;;;15.90;81.90;;;;;;5009519;28;20059;-69
2022/06/24 00:30:53;;;;;;;10.88;5.10;;;15.80;81.80;;;;;;4958413;28;20044;-68
2022/06/24 00:33:21;;;;;;;14.25;6.65;;;15.80;81.70;;;;;;4953325;28;20035;-69
2022/06/24 00:35:48;;;;;;;14.02;5.82;;;15.70;82.20;;;;;;4948449;29;20039;-69
2022/06/24 00:38:28;;;;;;;11.65;5.35;;;15.70;82.20;;;;;;4955002;28;20058;-68
2022/06/24 00:41:12;;;;;;;11.85;5.10;;;15.70;81.80;;;;;;4956217;28;20035;-69
2022/06/24 00:43:46;;;;;;;19.20;6.80;;;15.60;82.40;;;;;;4941439;28;20035;-69
2022/06/24 00:46:17;;;;;;;14.82;5.82;;;15.60;81.60;;;;;;4953449;28;20031;-70
2022/06/24 00:48:51;;;;;;;13.50;5.68;;;15.70;81.70;;;;;;4951566;28;20309;-69
2022/06/24 00:51:20;;;;;;;11.23;5.47;;;15.70;82.10;;;;;;4950763;28;20031;-69
2022/06/24 00:53:52;;;;;;;13.38;5.15;;;15.60;82.00;;;;;;4952213;28;20058;-69
2022/06/24 00:56:20;;;;;;;17.67;5.95;;;15.60;82.70;;;;;;4953965;28;20027;-69
2022/06/24 00:59:00;;;;;;;13.20;5.07;;;15.60;83.10;;;;;;4969793;28;20044;-69
2022/06/24 01:01:33;;;;;;;13.13;6.13;;;15.60;84.20;;;;;;4953006;28;20051;-69
2022/06/24 01:04:00;;;;;;;13.98;4.90;;;15.60;84.50;;;;;;4959710;28;20031;-69
2022/06/24 01:06:28;;;;;;;15.82;5.88;;;15.60;85.70;;;;;;4957264;28;20039;-69
2022/06/24 01:08:54;;;;;;;15.95;5.45;;;15.70;86.20;;;;;;4961746;28;20023;-69
2022/06/24 01:11:33;;;;;;;16.63;5.90;;;15.70;87.10;;;;;;4950485;28;20094;-69
2022/06/24 01:13:59;;;;;;;13.82;5.78;;;15.70;86.70;;;;;;4946470;28;20121;-69
2022/06/24 01:16:28;;;;;;;16.05;5.22;;;15.70;86.20;;;;;;4950731;28;20587;-69
2022/06/24 01:18:55;;;;;;;15.95;5.03;;;15.70;87.80;;;;;;4952870;28;20043;-69
2022/06/24 01:21:38;;;;;;;10.35;4.70;;;15.80;87.60;;;;;;4948857;28;20023;-69
2022/06/24 01:24:06;;;;;;;13.80;4.22;;;15.80;87.90;;;;;;4958249;28;20030;-69
2022/06/24 01:26:32;;;;;;;13.27;5.05;;;15.80;89.10;;;;;;4952901;28;20022;-70
2022/06/24 01:28:58;;;;;;;16.48;4.97;;;15.80;89.70;;;;;;4864092;28;20049;-70
2022/06/24 01:31:24;;;;;;;11.45;4.35;;;15.80;89.30;;;;;;4963270;28;20941;-69
2022/06/24 01:33:49;;;;;;;18.27;5.40;;;15.70;89.60;;;;;;4958774;28;20110;-69
2022/06/24 01:36:15;;;;;;;14.48;5.22;;;15.70;90.60;;;;;;4948411;28;20106;-69
2022/06/24 01:38:41;;;;;;;12.60;4.00;;;15.80;90.50;;;;;;4953214;28;20084;-69
2022/06/24 01:41:08;;;;;;;12.27;4.60;;;15.80;91.90;;;;;;4954777;28;20515;-71
2022/06/24 01:43:34;;;;;;;15.32;4.50;;;15.90;92.30;;;;;;4952284;28;20049;-69
2022/06/24 01:46:00;;;;;;;15.10;5.43;;;15.80;91.90;;;;;;4957022;28;20035;-69
2022/06/24 01:48:25;;;;;;;12.02;5.10;;;15.70;90.90;;;;;;4955553;28;20039;-68
2022/06/24 01:50:51;;;;;;;17.90;5.53;;;15.70;90.50;;;;;;4952444;28;20544;-69
2022/06/24 01:53:16;;;;;;;19.30;4.57;;;15.60;90.10;;;;;;4958036;28;20030;-68
2022/06/24 01:55:42;;;;;;;12.25;4.80;;;15.60;90.50;;;;;;4954508;28;20328;-69
2022/06/24 01:58:08;;;;;;;14.88;5.53;;;15.60;90.30;;;;;;4956887;28;20031;-70
2022/06/24 02:00:33;;;;;;;16.42;5.05;;;15.60;89.40;;;;;;4948202;28;20083;-70
2022/06/24 02:03:03;;;;;;;12.20;4.90;;;15.60;89.30;;;;;;4959005;28;20372;-69
2022/06/24 02:05:30;;;;;;;12.38;4.80;;;15.60;89.00;;;;;;4956048;28;20031;-69
2022/06/24 02:07:56;;;;;;;12.50;4.85;;;15.60;88.00;;;;;;4951222;28;20320;-69
2022/06/24 02:15:56;;;;;;;15.52;4.60;;;15.70;89.90;;;;;;4960777;28;20114;-68
2022/06/24 02:18:23;;;;;;;15.40;4.25;;;15.60;90.70;;;;;;4954774;28;20346;-70
2022/06/24 02:20:49;;;;;;;15.45;4.68;;;15.60;90.80;;;;;;4953986;28;20027;-70
2022/06/24 02:23:16;;;;;;;13.15;4.43;;;15.70;91.10;;;;;;4967126;28;20023;-70
2022/06/24 02:25:41;;;;;;;12.55;4.20;;;15.70;91.90;;;;;;4955458;28;20035;-69
2022/06/24 02:28:07;;;;;;;13.25;3.65;;;15.70;92.10;;;;;;4949107;28;20130;-69
2022/06/24 02:30:33;;;;;;;17.45;4.28;;;15.70;92.50;;;;;;4946938;28;20034;-70
2022/06/24 02:32:59;;;;;;;13.43;4.05;;;15.70;92.60;;;;;;4975661;28;20114;-69
2022/06/24 02:35:24;;;;;;;9.23;3.50;;;15.70;92.50;;;;;;4952767;28;20035;-69
2022/06/24 02:37:50;;;;;;;10.73;3.90;;;15.70;93.30;;;;;;4958988;28;20169;-70
2022/06/24 02:43:00;;;;;;;16.35;4.25;;;15.80;93.80;;;;;;4972398;28;20070;-69
2022/06/24 02:45:26;;;;;;;13.32;4.18;;;15.80;93.80;;;;;;4954513;28;20400;-69
2022/06/24 02:47:53;;;;;;;13.52;3.95;;;15.70;93.50;;;;;;4954820;28;20042;-69
2022/06/24 02:50:19;;;;;;;14.13;3.70;;;15.70;93.70;;;;;;4947993;28;20328;-69
2022/06/24 02:52:44;;;;;;;11.40;3.47;;;15.80;94.10;;;;;;4959518;28;20031;-69
2022/06/24 02:55:10;;;;;;;14.02;3.53;;;15.70;94.30;;;;;;4954362;28;20461;-69
2022/06/24 02:57:35;;;;;;;13.95;3.92;;;15.80;94.50;;;;;;4954787;28;20447;-69
2022/06/24 03:00:01;;;;;;;12.48;4.00;;;15.80;94.90;;;;;;4953674;28;20408;-69
2022/06/24 03:02:27;;;;;;;15.73;4.65;;;15.80;95.00;;;;;;4957466;28;20036;-69
2022/06/24 03:04:52;;;;;;;11.32;3.13;;;15.90;95.50;;;;;;4963989;28;20121;-69
2022/06/24 03:07:18;;;;;;;11.93;4.30;;;15.90;94.90;;;;;;4950999;28;20412;-70
2022/06/24 03:09:43;;;;;;;16.05;4.82;;;15.80;94.30;;;;;;4947628;28;20431;-69
2022/06/24 03:12:09;;;;;;;11.90;4.47;;;15.70;93.50;;;;;;4958067;28;20120;-69
2022/06/24 03:14:35;;;;;;;18.98;4.40;;;15.60;93.10;;;;;;4954878;28;20031;-69
2022/06/24 03:17:00;;;;;;;10.30;3.95;;;15.50;92.90;;;;;;4961988;28;20037;-69
2022/06/24 03:19:26;;;;;;;11.18;4.25;;;15.60;93.10;;;;;;4960299;28;20046;-68
2022/06/24 03:21:52;;;;;;;15.50;4.35;;;15.60;93.30;;;;;;4960954;28;20116;-69
2022/06/24 03:24:18;;;;;;;14.18;4.60;;;15.60;93.40;;;;;;4949771;28;20333;-68
2022/06/24 03:26:43;;;;;;;11.07;3.53;;;15.60;93.60;;;;;;4955806;28;20038;-69
2022/06/24 03:29:09;;;;;;;14.75;4.68;;;15.70;94.60;;;;;;4960275;28;20035;-69
2022/06/24 03:31:35;;;;;;;12.95;4.38;;;15.80;94.80;;;;;;4948907;28;20454;-69
2022/06/24 03:34:03;;;;;;;9.93;3.70;;;15.80;94.90;;;;;;4959722;28;20038;-69
2022/06/24 03:36:29;;;;;;;12.65;4.03;;;15.70;94.70;;;;;;4945000;29;20089;-69
2022/06/24 03:38:54;;;;;;;10.40;3.58;;;15.70;94.90;;;;;;4943480;28;20827;-69
2022/06/24 03:41:20;;;;;;;12.32;3.58;;;15.80;95.50;;;;;;4982217;28;20038;-69
2022/06/24 03:43:46;;;;;;;13.45;4.18;;;15.80;95.00;;;;;;4952450;28;20027;-69
2022/06/24 03:46:11;;;;;;;12.18;4.20;;;15.70;94.30;;;;;;4964770;28;20034;-69
2022/06/24 03:48:37;;;;;;;16.90;4.50;;;15.70;94.00;;;;;;4955986;28;20043;-68
2022/06/24 03:51:02;;;;;;;11.60;3.85;;;15.60;93.70;;;;;;4961055;28;20027;-69
2022/06/24 03:53:31;;;;;;;9.35;3.90;;;15.60;93.60;;;;;;4956669;28;20139;-69
2022/06/24 03:55:59;;;;;;;14.57;4.05;;;15.50;93.80;;;;;;4946458;28;20374;-69
2022/06/24 03:58:25;;;;;;;11.93;4.10;;;15.60;94.50;;;;;;4957824;28;20356;-69
2022/06/24 04:00:50;;;;;;;11.57;3.80;;;15.70;94.80;;;;;;4953530;28;20041;-68
2022/06/24 04:03:16;;;;;;;12.68;4.15;;;15.70;94.70;;;;;;4954252;28;20312;-68
2022/06/24 04:05:42;;;;;;;9.85;3.90;;;15.70;94.50;;;;;;4948452;28;20059;-69
2022/06/24 04:08:08;;;;;;;14.82;4.03;;;15.70;94.50;;;;;;4951429;28;20035;-68
2022/06/24 04:10:33;;;;;;;13.10;4.35;;;15.60;94.20;;;;;;4961962;28;20027;-68
2022/06/24 04:12:59;;;;;;;9.75;3.95;;;15.60;93.70;;;;;;4955757;28;20062;-68
2022/06/24 04:15:24;;;;;;;13.40;4.97;;;15.50;93.10;;;;;;4958507;28;20117;-69
2022/06/24 04:17:50;;;;;;;15.20;4.60;;;15.50;93.00;;;;;;4953550;28;21770;-69
2022/06/24 04:20:20;;;;;;;13.38;4.20;;;15.40;92.80;;;;;;4951744;28;20062;-68
2022/06/24 04:22:46;;;;;;;9.95;4.40;;;15.50;92.80;;;;;;4950463;28;20024;-69
2022/06/24 04:25:12;;;;;;;13.75;4.20;;;15.50;92.60;;;;;;4951296;28;20033;-69
2022/06/24 04:27:38;;;;;;;18.20;4.65;;;15.50;93.30;;;;;;4945864;28;20325;-69
2022/06/24 04:30:08;;;;;;;10.52;4.05;;;15.60;93.90;;;;;;4954396;28;20185;-69
2022/06/24 04:32:35;;;;;;;11.82;3.78;;;15.70;94.10;;;;;;4960039;28;20042;-69
2022/06/24 04:35:00;;;;;;;12.60;3.78;;;15.70;95.10;;;;;;4946173;28;20137;-68
2022/06/24 04:37:26;;;;;;;9.73;3.60;;;15.80;95.20;;;;;;4964912;28;20491;-68
2022/06/24 04:39:52;;;;;;;10.60;3.72;;;15.90;96.20;;;;;;4964186;28;20115;-68
2022/06/24 04:42:18;;;;;;;12.95;4.18;;;16.00;96.80;;;;;;4948780;28;20039;-67
2022/06/24 04:44:43;;;;;;;12.63;3.63;;;16.10;96.70;;;;;;4956965;28;20053;-70
2022/06/24 04:47:11;;;;;;;11.35;4.13;;;16.10;96.90;;;;;;4951675;28;20027;-68
2022/06/24 04:49:37;;;;;;;14.70;3.80;;;16.20;96.70;;;;;;4948978;28;20047;-68
2022/06/24 04:52:04;;;;;;;12.02;4.05;;;16.20;97.20;;;;;;4950020;28;20078;-68
2022/06/24 04:54:29;;;;;;;13.63;3.65;;;16.30;97.70;;;;;;4954405;28;20040;-69
2022/06/24 04:56:55;;;;;;;15.32;3.20;;;16.30;98.00;;;;;;4952841;28;20102;-69
2022/06/24 04:59:21;;;;;;;12.48;3.85;;;16.50;98.00;;;;;;4956376;28;20054;-69
2022/06/24 05:01:46;;;;;;;13.07;3.97;;;16.70;98.00;;;;;;4955826;28;20031;-68
2022/06/24 05:04:13;;;;;;;10.68;3.10;;;16.70;97.80;;;;;;4974147;28;20023;-68
2022/06/24 05:06:39;;;;;;;9.30;3.67;;;16.70;97.90;;;;;;4970276;28;20080;-68
2022/06/24 05:09:05;;;;;;;11.68;3.30;;;16.70;98.00;;;;;;4972048;28;20042;-69
2022/06/24 05:11:31;;;;;;;10.20;3.22;;;16.80;98.00;;;;;;4963042;28;20027;-68
2022/06/24 05:13:57;;;;;;;14.10;3.58;;;17.00;98.00;;;;;;4954263;28;20043;-72
2022/06/24 05:16:23;;;;;;;11.45;3.40;;;17.00;98.00;;;;;;4958779;28;20042;-70
2022/06/24 05:18:54;;;;;;;8.38;3.25;;;17.10;98.00;;;;;;4954921;28;20038;-70
2022/06/24 05:21:20;;;;;;;11.57;3.85;;;17.10;98.00;;;;;;5039479;28;20459;-69
2022/06/24 05:23:46;;;;;;;10.50;3.10;;;17.20;98.00;;;;;;4954770;28;20478;-69
2022/06/24 05:26:14;;;;;;;9.00;3.10;;;17.20;98.00;;;;;;4954003;28;20022;-69
2022/06/24 05:28:40;;;;;;;9.65;3.03;;;17.30;98.00;;;;;;5004636;28;20063;-69
2022/06/24 05:31:05;;;;;;;6.47;2.60;;;17.40;98.00;;;;;;4955813;28;20340;-69
2022/06/24 05:33:33;;;;;;;12.35;3.35;;;17.50;98.00;;;;;;4961336;28;20458;-69
2022/06/24 05:35:59;;;;;;;8.90;2.95;;;17.60;98.00;;;;;;4957494;28;20027;-69
2022/06/24 05:38:25;;;;;;;8.18;3.33;;;17.70;98.00;;;;;;4953553;28;20031;-69
2022/06/24 05:40:52;;;;;;;10.05;2.88;;;17.80;98.00;;;;;;4954296;28;20073;-69
2022/06/24 05:43:18;;;;;;;12.95;3.40;;;17.90;98.00;;;;;;4954621;28;20023;-69
2022/06/24 05:45:45;;;;;;;7.82;2.83;;;17.90;98.00;;;;;;4984513;28;20307;-69
2022/06/24 05:48:11;;;;;;;11.32;2.65;;;18.00;98.00;;;;;;5054301;28;20170;-69
2022/06/24 05:50:40;;;;;;;9.95;2.83;;;18.10;98.00;;;;;;5055649;28;20450;-69
2022/06/24 05:55:58;;;;;;;7.72;2.60;;;18.30;98.00;;;;;;5018104;28;20035;-69
2022/06/24 05:58:25;;;;;;;8.48;2.50;;;18.30;98.00;;;;;;4954375;28;20030;-69
2022/06/24 06:00:51;;;;;;;10.13;2.67;;;18.40;97.50;;;;;;4953977;28;20023;-69
2022/06/24 06:03:18;;;;;;;9.55;2.55;;;18.50;96.80;;;;;;4952372;28;20467;-68
2022/06/24 06:05:46;;;;;;;9.23;2.60;;;18.50;97.00;;;;;;5036136;28;20075;-69
2022/06/24 06:08:12;;;;;;;9.65;2.63;;;18.60;95.80;;;;;;5056516;28;20024;-69
2022/06/24 06:10:38;;;;;;;8.20;2.70;;;18.70;96.00;;;;;;5059059;28;20086;-69
2022/06/24 06:13:04;;;;;;;7.30;2.65;;;18.80;96.60;;;;;;5009490;28;20134;-69
2022/06/24 06:15:30;;;;;;;9.77;2.47;;;18.90;96.20;;;;;;4957465;28;20031;-69
2022/06/24 06:17:59;;;;;;;9.20;2.60;;;19.10;95.40;;;;;;4957380;28;20417;-68
2022/06/24 06:20:25;;;;;;;8.20;2.50;;;19.20;95.00;;;;;;4957292;28;20033;-69
2022/06/24 06:22:51;;;;;;;10.73;2.65;;;19.20;93.80;;;;;;4955491;28;20031;-69
2022/06/24 06:25:17;;;;;;;7.40;2.17;;;19.30;94.20;;;;;;4956656;29;20073;-68
2022/06/24 06:27:42;;;;;;;5.15;1.95;;;19.30;94.60;;;;;;4957296;28;20039;-68
2022/06/24 06:30:09;;;;;;;9.52;2.40;;;19.50;94.70;;;;;;4956728;28;20106;-69
2022/06/24 06:32:34;;;;;;;10.18;2.13;;;19.50;92.60;;;;;;4995431;28;20039;-69
2022/06/24 06:35:00;;;;;;;8.60;2.00;;;19.60;92.30;;;;;;4954136;28;20420;-68
2022/06/24 06:37:26;;;;;;;8.30;2.30;;;19.70;91.50;;;;;;4956001;28;20106;-69
2022/06/24 06:39:51;;;;;;;5.82;2.08;;;19.90;90.00;;;;;;4956061;28;20418;-69
2022/06/24 06:42:17;;;;;;;8.77;2.20;;;20.20;90.80;;;;;;4956804;29;20363;-69
2022/06/24 06:44:42;;;;;;;7.72;2.00;;;20.50;90.70;;;;;;4957084;28;20028;-69
2022/06/24 06:47:08;;;;;;;7.85;1.77;;;20.50;89.90;;;;;;4980939;28;20025;-69
2022/06/24 06:49:34;;;;;;;8.63;2.42;;;20.80;91.10;;;;;;5048757;28;20033;-68
2022/06/24 06:52:00;;;;;;;8.90;2.10;;;21.10;88.60;;;;;;5056940;28;20064;-69
2022/06/24 06:54:26;;;;;;;11.25;2.10;;;21.00;87.40;;;;;;5058327;28;20025;-69
2022/06/24 06:56:51;;;;;;;10.45;2.47;;;20.60;87.90;;;;;;5053593;28;20026;-68
2022/06/24 06:59:17;;;;;;;6.15;2.15;;;20.50;90.20;;;;;;4964088;28;20074;-68
2022/06/24 07:01:43;;;;;;;8.30;2.25;;;20.40;89.70;;;;;;4972908;28;20031;-68
2022/06/24 07:04:08;;;;;;;18.90;4.30;;;20.50;89.40;;;;;;4970783;28;20026;-68
2022/06/24 07:06:34;;;;;;;13.48;4.18;;;20.60;88.90;;;;;;4973674;28;20034;-68
2022/06/24 07:09:00;;;;;;;8.43;3.10;;;20.60;88.50;;;;;;5057316;28;20067;-69
2022/06/24 07:11:26;;;;;;;13.52;3.10;;;20.50;89.50;;;;;;5057936;28;20028;-69
2022/06/24 07:13:51;;;;;;;6.28;2.28;;;20.50;89.60;;;;;;5057670;28;20045;-69
2022/06/24 07:16:18;;;;;;;7.07;2.03;;;20.40;89.40;;;;;;5057768;28;20061;-69
2022/06/24 07:18:47;;;;;;;19.08;4.70;;;20.50;89.50;;;;;;4964536;28;20031;-68
2022/06/24 07:21:13;;;;;;;10.40;3.38;;;20.90;89.10;;;;;;4956327;28;20046;-68
2022/06/24 07:23:39;;;;;;;7.45;2.10;;;21.30;87.10;;;;;;4955836;28;20106;-68
2022/06/24 07:26:08;;;;;;;9.98;2.40;;;21.50;87.40;;;;;;4956526;28;20050;-68
2022/06/24 07:28:34;;;;;;;7.57;1.85;;;21.40;85.10;;;;;;5035595;28;20037;-68
2022/06/24 07:31:00;;;;;;;5.75;1.83;;;21.30;84.40;;;;;;4990115;28;20035;-68
2022/06/24 07:33:26;;;;;;;9.65;2.65;;;21.30;85.50;;;;;;4955887;28;20415;-68
2022/06/24 07:35:51;;;;;;;5.00;1.80;;;21.30;86.00;;;;;;4956397;28;20084;-69
2022/06/24 07:38:18;;;;;;;9.60;2.08;;;21.40;86.30;;;;;;4969608;28;20320;-68
2022/06/24 07:40:43;;;;;;;5.72;1.90;;;21.50;86.30;;;;;;4952592;29;20374;-68
2022/06/24 07:43:09;;;;;;;6.72;2.20;;;21.90;86.10;;;;;;4956295;28;20035;-69
2022/06/24 07:45:35;;;;;;;8.15;2.10;;;22.10;84.00;;;;;;4956111;28;20125;-68
2022/06/24 07:48:01;;;;;;;6.85;1.85;;;22.20;83.80;;;;;;5010170;28;20051;-68
2022/06/24 07:50:27;;;;;;;6.88;1.95;;;22.20;83.30;;;;;;5057057;28;20732;-68
2022/06/24 07:52:52;;;;;;;6.95;1.75;;;21.90;84.20;;;;;;5055908;28;20021;-69
2022/06/24 07:58:04;;;;;;;;;;;21.90;84.50;;;;;;5044513;28;20043;-68
2022/06/24 08:00:29;;;;;;;5.00;1.80;;;22.10;84.40;;;;;;4977573;28;19914;-68
2022/06/24 08:02:55;;;;;;;7.03;2.03;;;22.10;84.20;;;;;;4955748;28;20073;-68
2022/06/24 08:05:21;;;;;;;5.10;2.10;;;22.10;84.70;;;;;;4955721;28;20027;-68
2022/06/24 08:07:47;;;;;;;5.25;1.83;;;22.10;83.70;;;;;;4965726;28;20035;-70
2022/06/24 08:10:13;;;;;;;7.15;1.90;;;22.20;84.90;;;;;;4955811;28;20037;-70
2022/06/24 08:12:40;;;;;;;6.32;2.00;;;22.40;83.10;;;;;;4955568;28;20062;-70
2022/06/24 08:15:06;;;;;;;7.53;2.20;;;22.30;82.40;;;;;;4954853;28;20039;-70
2022/06/24 08:17:31;;;;;;;6.70;2.08;;;22.60;83.10;;;;;;5030960;28;20100;-69
2022/06/24 08:19:57;;;;;;;5.32;1.80;;;22.60;83.90;;;;;;5056578;28;20502;-69
2022/06/24 08:22:23;;;;;;;6.32;1.92;;;22.80;82.60;;;;;;5055408;28;20099;-69
2022/06/24 08:24:48;;;;;;;7.68;2.00;;;22.80;81.70;;;;;;5056545;28;20104;-69
2022/06/24 08:27:16;;;;;;;8.52;2.08;;;22.60;83.10;;;;;;4988637;28;20058;-69
2022/06/24 08:29:42;;;;;;;7.97;2.10;;;22.70;82.20;;;;;;4973805;28;20055;-69
2022/06/24 08:32:08;;;;;;;5.20;1.70;;;22.90;82.40;;;;;;4955535;28;20058;-69
2022/06/24 08:34:33;;;;;;;7.18;1.70;;;22.70;81.70;;;;;;4955420;28;20471;-69
2022/06/24 08:36:59;;;;;;;6.20;1.88;;;22.60;82.20;;;;;;4992975;28;20085;-69
2022/06/24 08:39:24;;;;;;;8.60;2.03;;;23.10;81.10;;;;;;5046780;28;20037;-69
2022/06/24 08:41:55;;;;;;;5.97;1.90;;;24.00;80.10;;;;;;5056118;28;20036;-68
2022/06/24 08:44:22;;;;;;;5.63;2.00;;;24.50;77.40;;;;;;5056104;28;20029;-69
2022/06/24 08:46:47;;;;;;;6.93;1.67;;;23.90;79.00;;;;;;5021550;28;20037;-68
2022/06/24 08:49:13;;;;;;;5.30;1.58;;;23.40;80.20;;;;;;5055927;28;20032;-68
2022/06/24 08:51:41;;;;;;;4.63;1.63;;;23.00;80.80;;;;;;5055008;28;20604;-68
2022/06/24 08:54:09;;;;;;;7.13;1.80;;;23.10;81.10;;;;;;5022435;28;20466;-69
2022/06/24 08:56:35;;;;;;;7.03;2.10;;;23.80;80.20;;;;;;5055999;28;20311;-69
2022/06/24 08:59:03;;;;;;;5.75;1.80;;;24.40;78.10;;;;;;5046387;28;20028;-68
2022/06/24 09:01:29;;;;;;;5.55;1.73;;;25.00;79.30;;;;;;4961916;28;20038;-69
2022/06/24 09:03:55;;;;;;;7.40;1.70;;;26.60;74.90;;;;;;4946308;28;20560;-69
2022/06/24 09:06:20;;;;;;;6.13;1.55;;;28.20;71.00;;;;;;4953679;28;20031;-69
2022/06/24 09:08:49;;;;;;;4.28;1.50;;;29.50;66.80;;;;;;4955171;28;20027;-69
2022/06/24 09:11:15;;;;;;;4.95;1.60;;;30.30;65.60;;;;;;4954997;28;20332;-69
2022/06/24 09:13:48;;;;;;;4.97;1.33;;;31.30;64.70;;;;;;4970657;28;20045;-69
2022/06/24 09:16:17;;;;;;;4.43;1.33;;;31.80;60.80;;;;;;5039051;28;20131;-69
2022/06/24 09:18:50;;;;;;;7.13;1.50;;;31.70;61.40;;;;;;5012574;28;20033;-71
2022/06/24 09:21:42;;;;;;;5.28;1.33;;;32.40;61.10;;;;;;4947756;28;20035;-68
2022/06/24 09:24:09;;;;;;;7.40;1.45;;;32.50;61.60;;;;;;4950348;28;20063;-68
2022/06/24 09:26:43;;;;;;;5.82;1.52;;;31.90;60.40;;;;;;5030366;28;20031;-68
2022/06/24 09:29:14;;;;;;;4.38;1.45;;;31.50;61.90;;;;;;4962447;28;20031;-68
2022/06/24 09:31:40;;;;;;;5.50;2.05;;;29.70;64.20;;;;;;4958950;28;20114;-70
2022/06/24 09:34:12;;;;;;;6.20;1.67;;;28.50;66.60;;;;;;4973932;28;20019;-69
2022/06/24 09:36:39;;;;;;;5.60;1.38;;;27.10;70.50;;;;;;4962380;28;20506;-68
2022/06/24 09:39:09;;;;;;;5.90;1.23;;;26.20;69.90;;;;;;4954650;28;20081;-68
2022/06/24 09:41:43;;;;;;;4.53;1.50;;;25.80;69.40;;;;;;4957041;28;20055;-69
2022/06/24 09:44:09;;;;;;;6.68;1.65;;;25.40;71.40;;;;;;4938943;29;20031;-69
2022/06/24 09:46:35;;;;;;;5.90;2.15;;;25.60;72.00;;;;;;4949334;28;20441;-69
2022/06/24 09:49:11;;;;;;;5.70;1.70;;;25.50;71.40;;;;;;4977101;28;20030;-68
2022/06/24 09:51:39;;;;;;;6.05;1.95;;;25.30;72.70;;;;;;4964473;28;20039;-69
2022/06/24 09:54:05;;;;;;;6.32;1.92;;;25.40;73.40;;;;;;4956209;28;20031;-69
2022/06/24 09:56:32;;;;;;;5.85;1.73;;;25.50;72.80;;;;;;4964751;28;20441;-69
2022/06/24 10:01:45;;;;;;;5.05;1.25;;;26.40;69.60;;;;;;4965608;28;20069;-69
2022/06/24 10:04:17;;;;;;;8.02;1.60;;;27.80;69.30;;;;;;4953232;28;20023;-68
2022/06/24 10:06:48;;;;;;;5.95;1.63;;;29.50;66.00;;;;;;4954228;28;20041;-69
2022/06/24 10:09:18;;;;;;;4.22;1.30;;;30.60;62.60;;;;;;4955544;28;20063;-69
2022/06/24 10:11:44;;;;;;;5.13;1.50;;;31.40;62.20;;;;;;4954019;28;20023;-69
2022/06/24 10:14:12;;;;;;;4.78;1.73;;;30.90;61.90;;;;;;4967074;28;20054;-69
2022/06/24 10:16:42;;;;;;;6.78;1.40;;;29.80;63.10;;;;;;4971821;28;20027;-69
2022/06/24 10:19:10;;;;;;;5.90;1.77;;;28.80;66.00;;;;;;4952799;28;20031;-69
2022/06/24 10:21:36;;;;;;;5.47;1.60;;;29.30;66.30;;;;;;4953485;28;20131;-69
2022/06/24 10:24:14;;;;;;;4.25;1.30;;;30.30;63.00;;;;;;4957516;28;20028;-68
2022/06/24 10:26:47;;;;;;;4.82;1.50;;;30.60;63.50;;;;;;4956588;28;20031;-69
2022/06/24 10:29:20;;;;;;;5.63;1.60;;;30.70;62.00;;;;;;4967802;28;20027;-69
2022/06/24 10:31:53;;;;;;;8.00;1.70;;;30.90;62.40;;;;;;4957224;28;20058;-69
2022/06/24 10:34:32;;;;;;;5.97;1.70;;;29.70;63.20;;;;;;4966417;28;20035;-69
2022/06/24 10:37:16;;;;;;;4.05;1.67;;;28.20;67.00;;;;;;4971021;28;20074;-68
2022/06/24 10:39:46;;;;;;;;;;;26.70;70.90;;;;;;4997136;28;20047;-68
2022/06/24 10:42:14;;;;;;;6.28;1.80;;;26.30;71.20;;;;;;4955965;28;20298;-68
2022/06/24 10:44:56;;;;;;;5.95;1.80;;;25.40;72.50;;;;;;4969831;28;20428;-69
2022/06/24 10:47:40;;;;;;;6.07;1.90;;;25.20;73.50;;;;;;4976438;28;20019;-69
2022/06/24 10:50:11;;;;;;;6.63;2.03;;;24.60;75.60;;;;;;4979395;28;20430;-69
2022/06/24 10:52:48;;;;;;;4.97;1.75;;;24.60;77.00;;;;;;4973973;28;20472;-68
2022/06/24 10:55:29;;;;;;;5.70;1.95;;;24.50;77.10;;;;;;4965594;28;20115;-69
2022/06/24 10:58:11;;;;;;;5.35;1.90;;;24.20;78.60;;;;;;4982993;28;20042;-69
2022/06/24 11:00:37;;;;;;;8.32;2.13;;;24.30;79.70;;;;;;4952816;28;20030;-69
2022/06/24 11:03:02;;;;;;;4.88;1.70;;;24.40;78.20;;;;;;4976216;28;20312;-69
2022/06/24 11:05:40;;;;;;;6.55;1.83;;;24.90;76.40;;;;;;4970442;28;20039;-69
2022/06/24 11:08:13;;;;;;;5.53;1.92;;;25.30;76.50;;;;;;4984677;28;20433;-68
2022/06/24 11:10:41;;;;;;;6.75;2.10;;;25.70;74.60;;;;;;5002549;28;20084;-69
2022/06/24 11:13:07;;;;;;;5.18;1.50;;;26.30;74.60;;;;;;4962229;28;20045;-69
2022/06/24 11:15:49;;;;;;;4.97;1.73;;;26.90;74.00;;;;;;4975936;28;20057;-69
2022/06/24 11:18:17;;;;;;;5.45;1.50;;;28.00;68.50;;;;;;4970226;28;20027;-69
2022/06/24 11:20:49;;;;;;;5.15;1.30;;;28.50;68.10;;;;;;4974917;28;20110;-69
2022/06/24 11:23:17;;;;;;;9.05;1.55;;;29.10;66.50;;;;;;4974002;28;20477;-69
2022/06/24 11:25:51;;;;;;;3.05;1.10;;;28.80;64.30;;;;;;5049912;28;20082;-68
2022/06/24 11:28:25;;;;;;;4.13;1.33;;;28.50;66.00;;;;;;4982877;28;20031;-69
2022/06/24 11:30:53;;;;;;;5.47;1.55;;;28.40;65.80;;;;;;4973952;28;20042;-69
2022/06/24 11:33:20;;;;;;;6.05;1.35;;;28.40;64.90;;;;;;4975711;28;20605;-69
2022/06/24 11:35:49;;;;;;;5.47;1.30;;;28.30;64.20;;;;;;4968344;28;20031;-69
2022/06/24 11:38:16;;;;;;;4.85;1.70;;;27.50;67.20;;;;;;5034000;28;20025;-69
2022/06/24 11:40:42;;;;;;;5.47;1.20;;;27.80;66.70;;;;;;5037393;28;20021;-69
2022/06/24 11:43:15;;;;;;;2.30;1.00;;;27.80;64.90;;;;;;5007238;28;20031;-69
2022/06/24 11:45:43;;;;;;;2.97;1.10;;;27.80;66.60;;;;;;4955226;28;20023;-69
2022/06/24 11:48:11;;;;;;;4.30;1.40;;;27.20;67.20;;;;;;4962566;28;20332;-69
2022/06/24 11:50:37;;;;;;;5.03;1.35;;;26.70;67.40;;;;;;4957128;28;20088;-68
2022/06/24 11:53:04;;;;;;;7.15;1.73;;;26.40;67.90;;;;;;4954956;28;20177;-68
2022/06/24 11:55:34;;;;;;;5.53;1.42;;;26.10;68.10;;;;;;4969646;28;20032;-68
2022/06/24 11:58:03;;;;;;;4.22;1.48;;;25.60;68.90;;;;;;4993305;28;20035;-68
2022/06/24 12:00:37;;;;;;;4.20;1.33;;;25.80;69.50;;;;;;4961611;28;20441;-69
2022/06/24 12:03:10;;;;;;;4.57;1.48;;;26.40;69.50;;;;;;4969757;28;20047;-68
2022/06/24 12:05:45;;;;;;;4.50;1.10;;;26.90;66.00;;;;;;4965003;28;20046;-68
2022/06/24 12:08:11;;;;;;;4.53;1.33;;;26.70;65.90;;;;;;4952808;28;20335;-67
2022/06/24 12:10:52;;;;;;;5.82;1.30;;;26.00;67.30;;;;;;4954600;28;20042;-69
2022/06/24 12:13:34;;;;;;;9.63;1.70;;;25.40;69.30;;;;;;4954768;28;20138;-67
2022/06/24 12:16:04;;;;;;;3.08;1.30;;;25.00;69.80;;;;;;4952097;28;20031;-70
2022/06/24 12:18:30;;;;;;;6.65;1.27;;;24.80;71.80;;;;;;4961867;28;20038;-70
2022/06/24 12:21:03;;;;;;;3.78;1.10;;;24.50;72.20;;;;;;4953765;28;20027;-70
2022/06/24 12:23:37;;;;;;;22.50;2.35;;;24.10;73.20;;;;;;4952429;28;20436;-69
2022/06/24 12:26:21;;;;;;;5.28;1.35;;;23.80;74.50;;;;;;4935428;28;20059;-67
2022/06/24 12:28:59;;;;;;;4.55;1.73;;;23.50;74.30;;;;;;4953015;28;20039;-68
2022/06/24 12:31:25;;;;;;;6.78;1.58;;;23.20;74.60;;;;;;4937072;28;20043;-69
2022/06/24 12:33:53;;;;;;;4.93;1.65;;;23.00;75.30;;;;;;4960311;28;20058;-69
2022/06/24 12:36:22;;;;;;;4.63;1.40;;;22.80;75.30;;;;;;4952830;28;20031;-69
2022/06/24 12:38:47;;;;;;;5.57;1.73;;;22.80;77.20;;;;;;4969015;28;20120;-69
2022/06/24 12:41:16;;;;;;;5.05;1.63;;;22.60;80.60;;;;;;4969471;28;20181;-68
2022/06/24 12:44:01;;;;;;;6.43;1.50;;;22.30;83.80;;;;;;4953730;28;20090;-68
2022/06/24 12:46:33;;;;;;;4.82;1.80;;;21.90;86.00;;;;;;4950178;28;20336;-69
2022/06/24 12:51:46;;;;;;;6.03;1.80;;;21.20;87.40;;;;;;4952858;28;20083;-68
2022/06/24 12:54:12;;;;;;;6.78;2.30;;;20.80;88.40;;;;;;4952687;29;20053;-69
2022/06/24 12:56:40;;;;;;;6.80;2.35;;;20.50;90.80;;;;;;4972167;28;20098;-69
2022/06/24 12:59:06;;;;;;;8.80;3.05;;;20.10;93.50;;;;;;4951881;28;20027;-69
2022/06/24 13:01:43;;;;;;;7.40;3.33;;;19.60;95.20;;;;;;4953914;28;20381;-70
2022/06/24 13:04:09;;;;;;;8.75;3.38;;;19.10;95.50;;;;;;4960871;28;20441;-71
2022/06/24 13:06:35;;;;;;;6.13;2.67;;;18.70;95.70;;;;;;4956380;28;20102;-71